»·PEaware :: WAT175 KLAS-KSAN

WAT175 :: KLAS-KSAN

FLIGHT INFORMATION

Flight Status: Arrived
Operator:
Walker Air Transport
More flights by this operator :: More flights under this callsign
Pilot: Michael C. (27126)
Aircraft: BOEING 737-800
(B738)
More flights by this aircraft type
Origin: KLAS McCarran Intl
United States
Destination: KSAN San Diego Intl-Lindbergh
United States
More flights between these airports :: More routes between these airports
Route: BOACH8 LVELL LUCKI1
File this flight plan on PilotEdge
Remarks: RMK / SIMBRIEF
Altitude:
(Current/Filed)
30,000ft
Speed:
(Current/Filed)
427kts
Departed: 03-May-20 06:17 PM
Arrived: 03-May-20 07:01 PM
Distance/Time
Traveled:
225nm/0:43
Distance/Time
To Go:
Arrived

Flight Plot

Page will automatically refresh every two minutes.

Flight plan parsing failed; only flown route is shown


Map Options




Map Legend


Flown Route
Filed Route
Departure Airport
Arrival Airport
Navaid (VOR, NDB)
Fix

Horizontal Profiles

Position Reports

Time Latitude Longitude Heading Altitude Ground
Speed
03-May-20 16:57 36.080942 -115.145910 270 2121ft 0kts
03-May-20 16:58 36.080942 -115.145910 270 2121ft 0kts
03-May-20 16:59 36.080942 -115.145910 270 2121ft 0kts
03-May-20 17:00 36.080942 -115.145910 270 2121ft 0kts
03-May-20 17:01 36.080942 -115.145910 270 2121ft 0kts
03-May-20 17:02 36.080942 -115.145910 270 2121ft 0kts
03-May-20 17:03 36.080942 -115.145910 270 2121ft 0kts
03-May-20 17:04 36.080942 -115.145910 270 2121ft 0kts
03-May-20 17:05 36.080942 -115.145910 270 2121ft 0kts
03-May-20 17:06 36.080942 -115.145910 270 2121ft 0kts
03-May-20 17:07 36.080942 -115.145910 270 2121ft 0kts
03-May-20 17:08 36.080942 -115.145910 270 2121ft 0kts
03-May-20 17:09 36.080942 -115.145910 270 2121ft 0kts
03-May-20 17:10 36.080942 -115.145910 270 2121ft 0kts
03-May-20 17:11 36.080942 -115.145910 270 2121ft 0kts
03-May-20 17:12 36.080942 -115.145910 270 2121ft 0kts
03-May-20 17:13 36.080942 -115.145910 270 2121ft 0kts
03-May-20 17:14 36.080942 -115.145910 270 2121ft 0kts
03-May-20 17:15 36.080942 -115.145910 270 2121ft 0kts
03-May-20 17:16 36.080942 -115.145910 270 2121ft 0kts
03-May-20 17:17 36.080942 -115.145910 270 2121ft 0kts
03-May-20 17:18 36.080942 -115.145910 270 2121ft 0kts
03-May-20 17:19 36.080942 -115.145910 270 2121ft 0kts
03-May-20 17:20 36.080942 -115.145910 270 2121ft 0kts
03-May-20 17:22 36.080942 -115.145910 270 2121ft 0kts
03-May-20 17:23 36.080942 -115.145910 270 2121ft 0kts
03-May-20 17:24 36.080942 -115.145910 270 2121ft 0kts
03-May-20 17:25 36.080942 -115.145910 270 2121ft 0kts
03-May-20 17:26 36.080942 -115.145910 270 2121ft 0kts
03-May-20 17:27 36.080942 -115.145910 270 2121ft 0kts
03-May-20 17:28 36.080942 -115.145910 270 2121ft 0kts
03-May-20 17:29 36.080942 -115.145910 270 2121ft 0kts
03-May-20 17:30 36.080942 -115.145910 270 2121ft 0kts
03-May-20 17:31 36.080942 -115.145910 270 2121ft 0kts
03-May-20 17:32 36.080942 -115.145910 270 2121ft 0kts
03-May-20 17:33 36.080942 -115.145910 270 2121ft 0kts
03-May-20 17:34 36.080942 -115.145910 270 2121ft 0kts
03-May-20 17:35 36.080942 -115.145910 270 2121ft 0kts
03-May-20 17:36 36.080942 -115.145910 270 2121ft 0kts
03-May-20 17:37 36.080942 -115.145910 270 2121ft 0kts
03-May-20 17:38 36.080942 -115.145910 270 2121ft 0kts
03-May-20 17:38 36.080942 -115.145910 270 2121ft 0kts
03-May-20 17:40 36.080942 -115.145910 270 2121ft 0kts
03-May-20 17:41 36.080942 -115.145910 270 2121ft 0kts
03-May-20 17:41 36.080942 -115.145910 270 2121ft 0kts
03-May-20 17:42 36.080942 -115.145910 270 2121ft 0kts
03-May-20 17:44 36.080942 -115.145910 270 2121ft 0kts
03-May-20 17:44 36.080942 -115.145910 270 2121ft 0kts
03-May-20 17:45 36.080942 -115.145910 270 2121ft 0kts
03-May-20 17:46 36.080942 -115.145910 270 2121ft 0kts
03-May-20 17:47 36.080942 -115.145910 270 2121ft 0kts
03-May-20 17:48 36.080942 -115.145910 270 2121ft 0kts
03-May-20 17:49 36.080942 -115.145910 270 2121ft 0kts
03-May-20 17:50 36.080942 -115.145910 270 2121ft 0kts
03-May-20 17:51 36.080942 -115.145910 270 2121ft 0kts
03-May-20 17:52 36.080942 -115.145910 270 2121ft 0kts
03-May-20 17:53 36.080942 -115.145910 270 2121ft 0kts
03-May-20 17:54 36.080942 -115.145910 270 2121ft 0kts
03-May-20 17:55 36.080942 -115.145910 270 2121ft 0kts
03-May-20 17:56 36.080942 -115.145910 270 2121ft 0kts
03-May-20 17:57 36.080942 -115.145910 270 2121ft 0kts
03-May-20 17:58 36.080941 -115.145774 270 2121ft 2kts
03-May-20 17:59 36.081313 -115.145269 183 2121ft 2kts
03-May-20 18:00 36.081555 -115.145331 156 2121ft 0kts
03-May-20 18:01 36.081555 -115.145331 156 2121ft 0kts
03-May-20 18:02 36.080087 -115.144846 179 2121ft 16kts
03-May-20 18:03 36.078910 -115.144841 178 2121ft 0kts
03-May-20 18:04 36.078880 -115.144840 179 2121ft 0kts
03-May-20 18:05 36.078874 -115.144840 179 2121ft 0kts
03-May-20 18:06 36.078874 -115.144840 179 2121ft 0kts
03-May-20 18:07 36.078268 -115.142223 89 2121ft 22kts
03-May-20 18:08 36.078266 -115.134712 88 2121ft 19kts
03-May-20 18:09 36.078280 -115.128283 89 2121ft 17kts
03-May-20 18:10 36.078232 -115.122820 107 2121ft 12kts
03-May-20 18:11 36.077459 -115.121487 140 2121ft 0kts
03-May-20 18:12 36.077456 -115.121484 140 2121ft 0kts
03-May-20 18:13 36.077456 -115.121484 140 2121ft 0kts
03-May-20 18:14 36.077456 -115.121484 140 2121ft 0kts
03-May-20 18:15 36.076474 -115.121641 254 2121ft 4kts
03-May-20 18:16 36.076390 -115.138638 270 2148ft 164kts
03-May-20 18:17 36.078318 -115.202102 256 4370ft 237kts
03-May-20 18:18 36.034673 -115.272670 210 7929ft 277kts
03-May-20 18:19 35.956202 -115.303336 190 7842ft 290kts
03-May-20 18:20 35.876786 -115.312830 189 8763ft 287kts
03-May-20 18:21 35.797595 -115.308357 178 9276ft 289kts
03-May-20 18:22 35.713065 -115.298721 179 11460ft 330kts
03-May-20 18:23 35.620358 -115.296699 187 14605ft 339kts
03-May-20 18:24 35.523968 -115.300808 187 17385ft 353kts
03-May-20 18:25 35.423158 -115.304827 188 19084ft 366kts
03-May-20 18:26 35.321956 -115.308787 188 19183ft 363kts
03-May-20 18:27 35.214106 -115.313187 187 20208ft 410kts
03-May-20 18:28 35.094949 -115.317865 187 21231ft 440kts
03-May-20 18:29 34.970277 -115.322694 187 22247ft 453kts
03-May-20 18:30 34.842122 -115.329968 191 23257ft 466kts
03-May-20 18:31 34.716019 -115.365670 201 24267ft 464kts
03-May-20 18:32 34.592749 -115.415098 203 25275ft 468kts
03-May-20 18:33 34.468413 -115.468186 204 26080ft 472kts
03-May-20 18:34 34.344985 -115.525241 211 26840ft 471kts
03-May-20 18:35 34.229021 -115.599915 208 28257ft 463kts
03-May-20 18:36 34.113812 -115.658637 207 30002ft 446kts
03-May-20 18:37 34.000615 -115.713385 207 29955ft 439kts
03-May-20 18:38 33.887557 -115.767367 207 29851ft 425kts
03-May-20 18:39 33.781298 -115.819690 208 29853ft 414kts
03-May-20 18:40 33.674752 -115.869984 207 29402ft 404kts
03-May-20 18:41 33.571843 -115.918098 208 27108ft 397kts
03-May-20 18:42 33.490532 -115.996310 234 25858ft 374kts
03-May-20 18:43 33.428044 -116.096131 238 24699ft 367kts
03-May-20 18:44 33.365779 -116.202019 236 23030ft 420kts
03-May-20 18:45 33.271739 -116.288231 210 21313ft 435kts
03-May-20 18:46 33.164420 -116.351435 209 18525ft 421kts
03-May-20 18:47 33.064382 -116.409910 209 14305ft 388kts
03-May-20 18:48 32.977284 -116.473014 222 11982ft 329kts
03-May-20 18:49 32.910988 -116.539661 223 11374ft 306kts
03-May-20 18:50 32.849270 -116.601819 223 10120ft 265kts
03-May-20 18:51 32.792212 -116.659345 222 8466ft 299kts
03-May-20 18:52 32.745203 -116.738007 242 6498ft 271kts
03-May-20 18:53 32.711742 -116.809079 242 5982ft 225kts
03-May-20 18:54 32.687819 -116.881043 251 5939ft 232kts
03-May-20 18:55 32.677927 -116.961425 282 3940ft 239kts
03-May-20 18:56 32.695370 -117.033067 284 2977ft 211kts
03-May-20 18:57 32.709179 -117.096178 293 1810ft 163kts
03-May-20 18:58 32.722255 -117.145250 287 648ft 155kts
03-May-20 18:59 32.733735 -117.190484 285 25ft 93kts
03-May-20 19:00 32.734310 -117.199571 204 25ft 0kts
03-May-20 19:01 32.734310 -117.199571 204 25ft 0kts

Navigation Log

Ident Type
Flight plan parsing failed, navigation log unavailable